sensor_id;sensor_type;location;lat;lon;timestamp;P1;durP1;ratioP1;P2;durP2;ratioP2
22260;SDS011;11299;43.202;27.920;2023-04-03T00:02:05;21.10;;;14.45;;
22260;SDS011;11299;43.202;27.920;2023-04-03T00:04:30;23.70;;;13.80;;
22260;SDS011;11299;43.202;27.920;2023-04-03T00:06:56;25.25;;;14.52;;
22260;SDS011;11299;43.202;27.920;2023-04-03T00:09:22;21.90;;;13.65;;
22260;SDS011;11299;43.202;27.920;2023-04-03T00:11:47;18.15;;;12.80;;
22260;SDS011;11299;43.202;27.920;2023-04-03T00:14:13;20.55;;;12.52;;
22260;SDS011;11299;43.202;27.920;2023-04-03T00:16:38;18.67;;;12.65;;
22260;SDS011;11299;43.202;27.920;2023-04-03T00:19:03;16.40;;;10.30;;
22260;SDS011;11299;43.202;27.920;2023-04-03T00:21:29;17.95;;;9.60;;
22260;SDS011;11299;43.202;27.920;2023-04-03T00:23:55;15.25;;;8.38;;
22260;SDS011;11299;43.202;27.920;2023-04-03T00:26:21;13.45;;;9.30;;
22260;SDS011;11299;43.202;27.920;2023-04-03T00:28:46;13.90;;;8.70;;
22260;SDS011;11299;43.202;27.920;2023-04-03T00:31:13;16.15;;;8.43;;
22260;SDS011;11299;43.202;27.920;2023-04-03T00:33:40;11.45;;;8.48;;
22260;SDS011;11299;43.202;27.920;2023-04-03T00:36:06;13.18;;;8.35;;
22260;SDS011;11299;43.202;27.920;2023-04-03T00:38:34;11.70;;;8.45;;
22260;SDS011;11299;43.202;27.920;2023-04-03T00:41:00;14.63;;;8.30;;
22260;SDS011;11299;43.202;27.920;2023-04-03T00:43:26;15.55;;;7.95;;
22260;SDS011;11299;43.202;27.920;2023-04-03T00:45:52;15.23;;;7.60;;
22260;SDS011;11299;43.202;27.920;2023-04-03T00:48:20;10.40;;;7.63;;
22260;SDS011;11299;43.202;27.920;2023-04-03T00:50:50;11.95;;;7.88;;
22260;SDS011;11299;43.202;27.920;2023-04-03T00:53:28;13.73;;;8.68;;
22260;SDS011;11299;43.202;27.920;2023-04-03T00:56:00;10.00;;;8.05;;
22260;SDS011;11299;43.202;27.920;2023-04-03T00:58:32;12.85;;;7.53;;
22260;SDS011;11299;43.202;27.920;2023-04-03T01:01:03;13.32;;;8.32;;
22260;SDS011;11299;43.202;27.920;2023-04-03T01:03:32;12.07;;;7.95;;
22260;SDS011;11299;43.202;27.920;2023-04-03T01:05:57;13.10;;;7.82;;
22260;SDS011;11299;43.202;27.920;2023-04-03T01:08:23;15.00;;;8.13;;
22260;SDS011;11299;43.202;27.920;2023-04-03T01:10:49;16.50;;;9.38;;
22260;SDS011;11299;43.202;27.920;2023-04-03T01:13:33;14.75;;;8.73;;
22260;SDS011;11299;43.202;27.920;2023-04-03T01:16:02;16.90;;;9.50;;
22260;SDS011;11299;43.202;27.920;2023-04-03T01:18:29;13.38;;;9.15;;
22260;SDS011;11299;43.202;27.920;2023-04-03T01:24:04;19.17;;;10.60;;
22260;SDS011;11299;43.202;27.920;2023-04-03T01:26:32;13.32;;;9.23;;
22260;SDS011;11299;43.202;27.920;2023-04-03T01:28:59;16.80;;;9.40;;
22260;SDS011;11299;43.202;27.920;2023-04-03T01:31:25;18.98;;;9.75;;
22260;SDS011;11299;43.202;27.920;2023-04-03T01:34:10;20.20;;;9.77;;
22260;SDS011;11299;43.202;27.920;2023-04-03T01:36:36;15.25;;;10.32;;
22260;SDS011;11299;43.202;27.920;2023-04-03T01:39:02;13.98;;;10.05;;
22260;SDS011;11299;43.202;27.920;2023-04-03T01:41:28;16.10;;;10.07;;
22260;SDS011;11299;43.202;27.920;2023-04-03T01:43:54;18.30;;;11.45;;
22260;SDS011;11299;43.202;27.920;2023-04-03T01:46:19;24.13;;;15.32;;
22260;SDS011;11299;43.202;27.920;2023-04-03T01:48:46;28.02;;;19.23;;
22260;SDS011;11299;43.202;27.920;2023-04-03T01:51:13;26.83;;;19.73;;
22260;SDS011;11299;43.202;27.920;2023-04-03T01:53:39;25.15;;;18.98;;
22260;SDS011;11299;43.202;27.920;2023-04-03T01:56:05;32.53;;;18.90;;
22260;SDS011;11299;43.202;27.920;2023-04-03T01:58:31;29.63;;;18.73;;
22260;SDS011;11299;43.202;27.920;2023-04-03T02:00:56;26.70;;;15.77;;
22260;SDS011;11299;43.202;27.920;2023-04-03T02:03:22;28.20;;;18.42;;
22260;SDS011;11299;43.202;27.920;2023-04-03T02:05:47;32.83;;;20.17;;
22260;SDS011;11299;43.202;27.920;2023-04-03T02:08:13;38.17;;;21.73;;
22260;SDS011;11299;43.202;27.920;2023-04-03T02:10:38;39.42;;;20.88;;
22260;SDS011;11299;43.202;27.920;2023-04-03T02:13:04;33.47;;;17.75;;
22260;SDS011;11299;43.202;27.920;2023-04-03T02:15:30;36.00;;;18.52;;
22260;SDS011;11299;43.202;27.920;2023-04-03T02:17:56;50.10;;;22.40;;
22260;SDS011;11299;43.202;27.920;2023-04-03T02:20:21;41.33;;;22.67;;
22260;SDS011;11299;43.202;27.920;2023-04-03T02:22:47;44.42;;;23.88;;
22260;SDS011;11299;43.202;27.920;2023-04-03T02:25:13;47.95;;;26.35;;
22260;SDS011;11299;43.202;27.920;2023-04-03T02:27:38;53.25;;;30.05;;
22260;SDS011;11299;43.202;27.920;2023-04-03T02:30:04;57.25;;;31.33;;
22260;SDS011;11299;43.202;27.920;2023-04-03T02:32:31;48.60;;;30.13;;
22260;SDS011;11299;43.202;27.920;2023-04-03T02:34:56;51.42;;;30.67;;
22260;SDS011;11299;43.202;27.920;2023-04-03T02:37:22;49.28;;;30.23;;
22260;SDS011;11299;43.202;27.920;2023-04-03T02:39:47;47.83;;;29.85;;
22260;SDS011;11299;43.202;27.920;2023-04-03T02:42:13;46.05;;;30.00;;
22260;SDS011;11299;43.202;27.920;2023-04-03T02:44:38;50.03;;;31.73;;
22260;SDS011;11299;43.202;27.920;2023-04-03T02:47:04;50.90;;;33.42;;
22260;SDS011;11299;43.202;27.920;2023-04-03T02:49:30;61.45;;;36.30;;
22260;SDS011;11299;43.202;27.920;2023-04-03T02:51:56;54.72;;;36.40;;
22260;SDS011;11299;43.202;27.920;2023-04-03T02:54:22;65.07;;;37.05;;
22260;SDS011;11299;43.202;27.920;2023-04-03T02:56:48;60.38;;;36.20;;
22260;SDS011;11299;43.202;27.920;2023-04-03T02:59:14;58.70;;;38.20;;
22260;SDS011;11299;43.202;27.920;2023-04-03T03:01:40;62.80;;;41.67;;
22260;SDS011;11299;43.202;27.920;2023-04-03T03:04:05;74.82;;;45.15;;
22260;SDS011;11299;43.202;27.920;2023-04-03T03:06:31;85.78;;;50.70;;
22260;SDS011;11299;43.202;27.920;2023-04-03T03:08:56;87.18;;;52.78;;
22260;SDS011;11299;43.202;27.920;2023-04-03T03:11:22;88.25;;;51.97;;
22260;SDS011;11299;43.202;27.920;2023-04-03T03:13:47;71.50;;;47.00;;
22260;SDS011;11299;43.202;27.920;2023-04-03T03:16:13;56.22;;;34.65;;
22260;SDS011;11299;43.202;27.920;2023-04-03T03:18:38;45.65;;;30.20;;
22260;SDS011;11299;43.202;27.920;2023-04-03T03:21:04;46.10;;;27.65;;
22260;SDS011;11299;43.202;27.920;2023-04-03T03:23:30;41.30;;;24.13;;
22260;SDS011;11299;43.202;27.920;2023-04-03T03:26:03;37.13;;;24.80;;
22260;SDS011;11299;43.202;27.920;2023-04-03T03:28:30;43.95;;;24.33;;
22260;SDS011;11299;43.202;27.920;2023-04-03T03:30:57;38.42;;;23.77;;
22260;SDS011;11299;43.202;27.920;2023-04-03T03:33:23;36.80;;;22.73;;
22260;SDS011;11299;43.202;27.920;2023-04-03T03:35:50;37.35;;;23.15;;
22260;SDS011;11299;43.202;27.920;2023-04-03T03:38:16;38.20;;;23.20;;
22260;SDS011;11299;43.202;27.920;2023-04-03T03:40:42;37.35;;;24.05;;
22260;SDS011;11299;43.202;27.920;2023-04-03T03:43:07;43.75;;;25.15;;
22260;SDS011;11299;43.202;27.920;2023-04-03T03:45:33;42.90;;;26.73;;
22260;SDS011;11299;43.202;27.920;2023-04-03T03:47:59;47.90;;;29.15;;
22260;SDS011;11299;43.202;27.920;2023-04-03T03:50:24;44.72;;;27.08;;
22260;SDS011;11299;43.202;27.920;2023-04-03T03:52:50;44.15;;;26.95;;
22260;SDS011;11299;43.202;27.920;2023-04-03T03:55:15;37.80;;;24.73;;
22260;SDS011;11299;43.202;27.920;2023-04-03T03:57:41;45.00;;;27.23;;
22260;SDS011;11299;43.202;27.920;2023-04-03T04:00:07;40.92;;;26.13;;
22260;SDS011;11299;43.202;27.920;2023-04-03T04:02:33;42.60;;;26.15;;
22260;SDS011;11299;43.202;27.920;2023-04-03T04:04:59;46.42;;;27.27;;
22260;SDS011;11299;43.202;27.920;2023-04-03T04:07:24;51.85;;;28.30;;
22260;SDS011;11299;43.202;27.920;2023-04-03T04:09:53;50.13;;;27.95;;
22260;SDS011;11299;43.202;27.920;2023-04-03T04:12:18;47.40;;;29.85;;
22260;SDS011;11299;43.202;27.920;2023-04-03T04:14:45;48.40;;;31.63;;
22260;SDS011;11299;43.202;27.920;2023-04-03T04:17:12;49.92;;;31.85;;
22260;SDS011;11299;43.202;27.920;2023-04-03T04:19:37;52.95;;;31.70;;
22260;SDS011;11299;43.202;27.920;2023-04-03T04:22:03;48.90;;;30.92;;
22260;SDS011;11299;43.202;27.920;2023-04-03T04:24:29;45.00;;;28.98;;
22260;SDS011;11299;43.202;27.920;2023-04-03T04:26:54;47.70;;;27.98;;
22260;SDS011;11299;43.202;27.920;2023-04-03T04:29:20;40.80;;;26.77;;
22260;SDS011;11299;43.202;27.920;2023-04-03T04:31:45;38.40;;;24.73;;
22260;SDS011;11299;43.202;27.920;2023-04-03T04:34:10;35.95;;;23.00;;
22260;SDS011;11299;43.202;27.920;2023-04-03T04:36:38;35.33;;;22.58;;
22260;SDS011;11299;43.202;27.920;2023-04-03T04:39:04;37.72;;;19.88;;
22260;SDS011;11299;43.202;27.920;2023-04-03T04:41:30;28.83;;;17.95;;
22260;SDS011;11299;43.202;27.920;2023-04-03T04:43:56;30.20;;;18.00;;
22260;SDS011;11299;43.202;27.920;2023-04-03T04:46:21;24.90;;;15.80;;
22260;SDS011;11299;43.202;27.920;2023-04-03T04:48:47;25.55;;;16.00;;
22260;SDS011;11299;43.202;27.920;2023-04-03T04:51:13;22.80;;;14.70;;
22260;SDS011;11299;43.202;27.920;2023-04-03T04:53:40;22.73;;;13.48;;
22260;SDS011;11299;43.202;27.920;2023-04-03T04:56:06;22.58;;;15.10;;
22260;SDS011;11299;43.202;27.920;2023-04-03T04:58:31;22.38;;;13.98;;
22260;SDS011;11299;43.202;27.920;2023-04-03T05:01:00;26.88;;;15.10;;
22260;SDS011;11299;43.202;27.920;2023-04-03T05:03:30;35.95;;;21.83;;
22260;SDS011;11299;43.202;27.920;2023-04-03T05:05:56;40.75;;;25.83;;
22260;SDS011;11299;43.202;27.920;2023-04-03T05:08:22;65.47;;;41.03;;
22260;SDS011;11299;43.202;27.920;2023-04-03T05:10:48;53.05;;;31.35;;
22260;SDS011;11299;43.202;27.920;2023-04-03T05:13:13;39.10;;;21.90;;
22260;SDS011;11299;43.202;27.920;2023-04-03T05:15:39;31.48;;;18.55;;
22260;SDS011;11299;43.202;27.920;2023-04-03T05:18:05;27.00;;;16.45;;
22260;SDS011;11299;43.202;27.920;2023-04-03T05:20:31;33.67;;;16.95;;
22260;SDS011;11299;43.202;27.920;2023-04-03T05:22:56;25.42;;;15.82;;
22260;SDS011;11299;43.202;27.920;2023-04-03T05:25:22;19.98;;;13.77;;
22260;SDS011;11299;43.202;27.920;2023-04-03T05:27:48;23.35;;;14.88;;
22260;SDS011;11299;43.202;27.920;2023-04-03T05:30:14;24.27;;;14.38;;
22260;SDS011;11299;43.202;27.920;2023-04-03T05:32:39;19.40;;;13.23;;
22260;SDS011;11299;43.202;27.920;2023-04-03T05:35:06;17.73;;;12.48;;
22260;SDS011;11299;43.202;27.920;2023-04-03T05:37:32;16.45;;;12.20;;
22260;SDS011;11299;43.202;27.920;2023-04-03T05:39:58;22.42;;;14.00;;
22260;SDS011;11299;43.202;27.920;2023-04-03T05:42:24;21.23;;;11.65;;
22260;SDS011;11299;43.202;27.920;2023-04-03T05:44:49;15.95;;;10.23;;
22260;SDS011;11299;43.202;27.920;2023-04-03T05:47:15;16.33;;;12.07;;
22260;SDS011;11299;43.202;27.920;2023-04-03T05:49:41;16.65;;;11.23;;
22260;SDS011;11299;43.202;27.920;2023-04-03T05:52:18;19.73;;;12.02;;
22260;SDS011;11299;43.202;27.920;2023-04-03T05:54:47;19.35;;;11.82;;
22260;SDS011;11299;43.202;27.920;2023-04-03T05:57:14;14.05;;;8.85;;
22260;SDS011;11299;43.202;27.920;2023-04-03T05:59:41;23.40;;;12.27;;
22260;SDS011;11299;43.202;27.920;2023-04-03T06:02:09;19.40;;;11.95;;
22260;SDS011;11299;43.202;27.920;2023-04-03T06:04:37;17.98;;;12.73;;
22260;SDS011;11299;43.202;27.920;2023-04-03T06:07:03;22.27;;;12.43;;
22260;SDS011;11299;43.202;27.920;2023-04-03T06:09:28;17.88;;;10.50;;
22260;SDS011;11299;43.202;27.920;2023-04-03T06:11:55;18.92;;;10.52;;
22260;SDS011;11299;43.202;27.920;2023-04-03T06:14:23;20.40;;;10.13;;
22260;SDS011;11299;43.202;27.920;2023-04-03T06:16:49;22.80;;;10.48;;
22260;SDS011;11299;43.202;27.920;2023-04-03T06:19:15;18.25;;;8.77;;
22260;SDS011;11299;43.202;27.920;2023-04-03T06:21:41;13.73;;;8.10;;
22260;SDS011;11299;43.202;27.920;2023-04-03T06:24:07;15.23;;;8.75;;
22260;SDS011;11299;43.202;27.920;2023-04-03T06:26:37;11.57;;;7.32;;
22260;SDS011;11299;43.202;27.920;2023-04-03T06:29:03;14.90;;;7.93;;
22260;SDS011;11299;43.202;27.920;2023-04-03T06:31:28;10.93;;;6.55;;
22260;SDS011;11299;43.202;27.920;2023-04-03T06:33:54;10.88;;;6.95;;
22260;SDS011;11299;43.202;27.920;2023-04-03T06:36:21;10.55;;;5.63;;
22260;SDS011;11299;43.202;27.920;2023-04-03T06:38:47;7.32;;;5.13;;
22260;SDS011;11299;43.202;27.920;2023-04-03T06:41:12;10.13;;;6.43;;
22260;SDS011;11299;43.202;27.920;2023-04-03T06:43:38;9.57;;;5.82;;
22260;SDS011;11299;43.202;27.920;2023-04-03T06:46:03;7.00;;;4.88;;
22260;SDS011;11299;43.202;27.920;2023-04-03T06:48:30;10.85;;;7.10;;
22260;SDS011;11299;43.202;27.920;2023-04-03T06:50:55;6.53;;;4.55;;
22260;SDS011;11299;43.202;27.920;2023-04-03T06:53:21;8.52;;;5.10;;
22260;SDS011;11299;43.202;27.920;2023-04-03T06:55:46;10.98;;;6.55;;
22260;SDS011;11299;43.202;27.920;2023-04-03T06:58:12;10.35;;;5.18;;
22260;SDS011;11299;43.202;27.920;2023-04-03T07:00:40;13.32;;;6.63;;
22260;SDS011;11299;43.202;27.920;2023-04-03T07:03:06;9.10;;;4.65;;
22260;SDS011;11299;43.202;27.920;2023-04-03T07:05:31;17.95;;;5.60;;
22260;SDS011;11299;43.202;27.920;2023-04-03T07:07:57;17.05;;;5.78;;
22260;SDS011;11299;43.202;27.920;2023-04-03T07:10:23;17.75;;;4.70;;
22260;SDS011;11299;43.202;27.920;2023-04-03T07:12:48;13.32;;;5.57;;
22260;SDS011;11299;43.202;27.920;2023-04-03T07:15:14;10.90;;;5.53;;
22260;SDS011;11299;43.202;27.920;2023-04-03T07:17:39;10.48;;;4.90;;
22260;SDS011;11299;43.202;27.920;2023-04-03T07:20:05;13.57;;;6.28;;
22260;SDS011;11299;43.202;27.920;2023-04-03T07:22:32;12.02;;;5.05;;
22260;SDS011;11299;43.202;27.920;2023-04-03T07:24:57;9.48;;;3.92;;
22260;SDS011;11299;43.202;27.920;2023-04-03T07:27:24;8.07;;;4.65;;
22260;SDS011;11299;43.202;27.920;2023-04-03T07:29:50;6.93;;;4.20;;
22260;SDS011;11299;43.202;27.920;2023-04-03T07:32:16;7.50;;;3.78;;
22260;SDS011;11299;43.202;27.920;2023-04-03T07:34:41;9.05;;;4.38;;
22260;SDS011;11299;43.202;27.920;2023-04-03T07:37:07;7.50;;;3.67;;
22260;SDS011;11299;43.202;27.920;2023-04-03T07:39:34;9.48;;;3.90;;
22260;SDS011;11299;43.202;27.920;2023-04-03T07:41:59;7.18;;;4.20;;
22260;SDS011;11299;43.202;27.920;2023-04-03T07:44:25;27.15;;;12.52;;
22260;SDS011;11299;43.202;27.920;2023-04-03T07:46:51;9.10;;;4.70;;
22260;SDS011;11299;43.202;27.920;2023-04-03T07:49:17;20.60;;;10.20;;
22260;SDS011;11299;43.202;27.920;2023-04-03T07:51:43;72.00;;;30.73;;
22260;SDS011;11299;43.202;27.920;2023-04-03T07:54:09;6.95;;;4.63;;
22260;SDS011;11299;43.202;27.920;2023-04-03T07:56:35;10.75;;;5.47;;
22260;SDS011;11299;43.202;27.920;2023-04-03T07:59:00;10.65;;;5.57;;
22260;SDS011;11299;43.202;27.920;2023-04-03T08:01:26;9.60;;;5.38;;
22260;SDS011;11299;43.202;27.920;2023-04-03T08:03:51;9.75;;;4.45;;
22260;SDS011;11299;43.202;27.920;2023-04-03T08:06:17;7.72;;;4.45;;
22260;SDS011;11299;43.202;27.920;2023-04-03T08:08:42;9.38;;;4.93;;
22260;SDS011;11299;43.202;27.920;2023-04-03T08:11:09;9.30;;;5.03;;
22260;SDS011;11299;43.202;27.920;2023-04-03T08:13:35;12.88;;;5.95;;
22260;SDS011;11299;43.202;27.920;2023-04-03T08:16:08;11.50;;;5.15;;
22260;SDS011;11299;43.202;27.920;2023-04-03T08:18:36;12.73;;;7.15;;
22260;SDS011;11299;43.202;27.920;2023-04-03T08:21:04;22.38;;;10.70;;
22260;SDS011;11299;43.202;27.920;2023-04-03T08:23:31;10.05;;;5.35;;
22260;SDS011;11299;43.202;27.920;2023-04-03T08:25:56;9.68;;;6.40;;
22260;SDS011;11299;43.202;27.920;2023-04-03T08:28:21;17.42;;;6.15;;
22260;SDS011;11299;43.202;27.920;2023-04-03T08:30:47;7.53;;;4.40;;
22260;SDS011;11299;43.202;27.920;2023-04-03T08:33:12;5.38;;;4.13;;
22260;SDS011;11299;43.202;27.920;2023-04-03T08:35:41;5.13;;;4.00;;
22260;SDS011;11299;43.202;27.920;2023-04-03T08:38:07;11.88;;;5.18;;
22260;SDS011;11299;43.202;27.920;2023-04-03T08:40:35;7.53;;;6.03;;
22260;SDS011;11299;43.202;27.920;2023-04-03T08:45:45;11.40;;;5.88;;
22260;SDS011;11299;43.202;27.920;2023-04-03T08:50:50;10.25;;;6.75;;
22260;SDS011;11299;43.202;27.920;2023-04-03T08:53:29;6.03;;;5.30;;
22260;SDS011;11299;43.202;27.920;2023-04-03T08:55:59;7.22;;;5.32;;
22260;SDS011;11299;43.202;27.920;2023-04-03T08:58:33;7.50;;;5.97;;
22260;SDS011;11299;43.202;27.920;2023-04-03T09:01:21;11.63;;;8.85;;
22260;SDS011;11299;43.202;27.920;2023-04-03T09:03:54;9.27;;;5.75;;
22260;SDS011;11299;43.202;27.920;2023-04-03T09:09:06;6.68;;;4.43;;
22260;SDS011;11299;43.202;27.920;2023-04-03T09:14:45;6.35;;;5.10;;
22260;SDS011;11299;43.202;27.920;2023-04-03T09:22:32;7.60;;;5.38;;
22260;SDS011;11299;43.202;27.920;2023-04-03T09:25:15;8.10;;;5.50;;
22260;SDS011;11299;43.202;27.920;2023-04-03T09:27:44;8.55;;;6.05;;
22260;SDS011;11299;43.202;27.920;2023-04-03T09:30:17;9.82;;;5.20;;
22260;SDS011;11299;43.202;27.920;2023-04-03T09:32:47;8.65;;;5.50;;
22260;SDS011;11299;43.202;27.920;2023-04-03T09:35:19;8.35;;;5.20;;
22260;SDS011;11299;43.202;27.920;2023-04-03T09:37:49;7.68;;;5.70;;
22260;SDS011;11299;43.202;27.920;2023-04-03T09:42:52;6.35;;;4.78;;
22260;SDS011;11299;43.202;27.920;2023-04-03T09:45:32;9.40;;;4.57;;
22260;SDS011;11299;43.202;27.920;2023-04-03T09:48:15;7.55;;;4.95;;
22260;SDS011;11299;43.202;27.920;2023-04-03T09:50:53;5.78;;;5.15;;
22260;SDS011;11299;43.202;27.920;2023-04-03T09:58:49;6.25;;;4.88;;
22260;SDS011;11299;43.202;27.920;2023-04-03T10:04:02;8.20;;;5.75;;
22260;SDS011;11299;43.202;27.920;2023-04-03T10:06:40;7.75;;;5.72;;
22260;SDS011;11299;43.202;27.920;2023-04-03T10:09:19;11.77;;;6.32;;
22260;SDS011;11299;43.202;27.920;2023-04-03T10:12:02;7.78;;;6.10;;
22260;SDS011;11299;43.202;27.920;2023-04-03T10:14:35;10.95;;;6.82;;
22260;SDS011;11299;43.202;27.920;2023-04-03T10:17:14;7.70;;;6.22;;
22260;SDS011;11299;43.202;27.920;2023-04-03T10:20:03;10.98;;;6.88;;
22260;SDS011;11299;43.202;27.920;2023-04-03T10:27:53;9.27;;;6.13;;
22260;SDS011;11299;43.202;27.920;2023-04-03T10:33:20;7.00;;;5.60;;
22260;SDS011;11299;43.202;27.920;2023-04-03T10:39:17;7.72;;;4.60;;
22260;SDS011;11299;43.202;27.920;2023-04-03T10:44:48;4.40;;;3.80;;
22260;SDS011;11299;43.202;27.920;2023-04-03T10:47:22;7.10;;;4.25;;
22260;SDS011;11299;43.202;27.920;2023-04-03T10:58:18;6.70;;;4.00;;
22260;SDS011;11299;43.202;27.920;2023-04-03T11:00:51;7.75;;;4.10;;
22260;SDS011;11299;43.202;27.920;2023-04-03T11:03:25;5.35;;;4.38;;
22260;SDS011;11299;43.202;27.920;2023-04-03T11:05:52;7.28;;;3.83;;
22260;SDS011;11299;43.202;27.920;2023-04-03T11:08:54;5.60;;;4.10;;
22260;SDS011;11299;43.202;27.920;2023-04-03T11:11:27;7.38;;;4.40;;
22260;SDS011;11299;43.202;27.920;2023-04-03T11:14:00;9.95;;;4.75;;
22260;SDS011;11299;43.202;27.920;2023-04-03T11:16:30;6.15;;;4.00;;
22260;SDS011;11299;43.202;27.920;2023-04-03T11:19:01;6.55;;;4.18;;
22260;SDS011;11299;43.202;27.920;2023-04-03T11:21:34;6.35;;;4.38;;
22260;SDS011;11299;43.202;27.920;2023-04-03T11:24:16;6.68;;;4.40;;
22260;SDS011;11299;43.202;27.920;2023-04-03T11:26:47;7.55;;;4.40;;
22260;SDS011;11299;43.202;27.920;2023-04-03T11:29:18;7.93;;;4.75;;
22260;SDS011;11299;43.202;27.920;2023-04-03T11:34:44;7.38;;;4.40;;
22260;SDS011;11299;43.202;27.920;2023-04-03T11:42:41;7.30;;;4.68;;
22260;SDS011;11299;43.202;27.920;2023-04-03T11:47:53;8.85;;;5.05;;
22260;SDS011;11299;43.202;27.920;2023-04-03T11:55:42;7.38;;;5.40;;
22260;SDS011;11299;43.202;27.920;2023-04-03T12:13:42;11.55;;;6.72;;
22260;SDS011;11299;43.202;27.920;2023-04-03T12:16:47;9.57;;;6.25;;
22260;SDS011;11299;43.202;27.920;2023-04-03T12:19:32;11.00;;;6.30;;
22260;SDS011;11299;43.202;27.920;2023-04-03T12:24:32;10.75;;;7.00;;
22260;SDS011;11299;43.202;27.920;2023-04-03T12:37:43;13.00;;;7.82;;
22260;SDS011;11299;43.202;27.920;2023-04-03T12:45:55;15.15;;;8.18;;
22260;SDS011;11299;43.202;27.920;2023-04-03T12:48:24;13.75;;;8.10;;
22260;SDS011;11299;43.202;27.920;2023-04-03T12:50:51;11.88;;;7.43;;
22260;SDS011;11299;43.202;27.920;2023-04-03T12:53:24;12.13;;;6.45;;
22260;SDS011;11299;43.202;27.920;2023-04-03T12:55:53;10.88;;;7.05;;
22260;SDS011;11299;43.202;27.920;2023-04-03T12:58:27;11.85;;;6.90;;
22260;SDS011;11299;43.202;27.920;2023-04-03T13:01:01;11.02;;;6.60;;
22260;SDS011;11299;43.202;27.920;2023-04-03T13:03:37;13.40;;;7.22;;
22260;SDS011;11299;43.202;27.920;2023-04-03T13:06:05;10.00;;;6.28;;
22260;SDS011;11299;43.202;27.920;2023-04-03T13:08:32;9.02;;;6.22;;
22260;SDS011;11299;43.202;27.920;2023-04-03T13:10:59;12.13;;;6.78;;
22260;SDS011;11299;43.202;27.920;2023-04-03T13:13:25;10.82;;;6.10;;
22260;SDS011;11299;43.202;27.920;2023-04-03T13:15:51;8.55;;;5.55;;
22260;SDS011;11299;43.202;27.920;2023-04-03T13:18:32;10.80;;;6.78;;
22260;SDS011;11299;43.202;27.920;2023-04-03T13:21:06;14.15;;;6.80;;
22260;SDS011;11299;43.202;27.920;2023-04-03T13:23:39;11.90;;;6.47;;
22260;SDS011;11299;43.202;27.920;2023-04-03T13:26:07;10.00;;;6.43;;
22260;SDS011;11299;43.202;27.920;2023-04-03T13:28:33;9.85;;;6.78;;
22260;SDS011;11299;43.202;27.920;2023-04-03T13:33:54;11.35;;;5.95;;
22260;SDS011;11299;43.202;27.920;2023-04-03T13:36:24;11.15;;;6.30;;
22260;SDS011;11299;43.202;27.920;2023-04-03T13:38:59;10.25;;;6.28;;
22260;SDS011;11299;43.202;27.920;2023-04-03T13:44:14;10.80;;;6.35;;
22260;SDS011;11299;43.202;27.920;2023-04-03T13:49:36;12.23;;;6.20;;
22260;SDS011;11299;43.202;27.920;2023-04-03T13:54:47;15.63;;;7.80;;
22260;SDS011;11299;43.202;27.920;2023-04-03T13:57:16;13.23;;;6.03;;
22260;SDS011;11299;43.202;27.920;2023-04-03T13:59:42;9.05;;;6.07;;
22260;SDS011;11299;43.202;27.920;2023-04-03T14:07:02;10.43;;;5.75;;
22260;SDS011;11299;43.202;27.920;2023-04-03T14:09:28;12.48;;;6.22;;
22260;SDS011;11299;43.202;27.920;2023-04-03T14:11:59;15.05;;;5.70;;
22260;SDS011;11299;43.202;27.920;2023-04-03T14:14:30;18.65;;;7.20;;
22260;SDS011;11299;43.202;27.920;2023-04-03T14:16:59;10.38;;;6.00;;
22260;SDS011;11299;43.202;27.920;2023-04-03T14:19:28;10.75;;;6.65;;
22260;SDS011;11299;43.202;27.920;2023-04-03T14:21:57;15.88;;;11.68;;
22260;SDS011;11299;43.202;27.920;2023-04-03T14:24:24;18.77;;;16.48;;
22260;SDS011;11299;43.202;27.920;2023-04-03T14:26:51;16.08;;;10.57;;
22260;SDS011;11299;43.202;27.920;2023-04-03T14:29:18;12.75;;;8.82;;
22260;SDS011;11299;43.202;27.920;2023-04-03T14:31:45;13.68;;;7.97;;
22260;SDS011;11299;43.202;27.920;2023-04-03T14:34:13;12.32;;;7.40;;
22260;SDS011;11299;43.202;27.920;2023-04-03T14:36:40;11.63;;;6.72;;
22260;SDS011;11299;43.202;27.920;2023-04-03T14:39:08;14.07;;;6.93;;
22260;SDS011;11299;43.202;27.920;2023-04-03T14:41:42;15.82;;;6.40;;
22260;SDS011;11299;43.202;27.920;2023-04-03T14:44:08;11.13;;;6.32;;
22260;SDS011;11299;43.202;27.920;2023-04-03T14:46:37;11.02;;;6.70;;
22260;SDS011;11299;43.202;27.920;2023-04-03T14:49:14;12.63;;;6.93;;
22260;SDS011;11299;43.202;27.920;2023-04-03T14:51:52;10.70;;;6.50;;
22260;SDS011;11299;43.202;27.920;2023-04-03T14:54:19;11.65;;;6.45;;
22260;SDS011;11299;43.202;27.920;2023-04-03T14:56:50;13.10;;;7.78;;
22260;SDS011;11299;43.202;27.920;2023-04-03T14:59:16;12.15;;;7.47;;
22260;SDS011;11299;43.202;27.920;2023-04-03T15:01:44;9.85;;;7.18;;
22260;SDS011;11299;43.202;27.920;2023-04-03T15:04:14;14.38;;;7.13;;
22260;SDS011;11299;43.202;27.920;2023-04-03T15:06:44;13.23;;;8.00;;
22260;SDS011;11299;43.202;27.920;2023-04-03T15:09:21;16.70;;;9.80;;
22260;SDS011;11299;43.202;27.920;2023-04-03T15:11:49;13.63;;;8.35;;
22260;SDS011;11299;43.202;27.920;2023-04-03T15:14:15;19.60;;;8.73;;
22260;SDS011;11299;43.202;27.920;2023-04-03T15:16:41;14.32;;;7.72;;
22260;SDS011;11299;43.202;27.920;2023-04-03T15:19:06;18.52;;;10.07;;
22260;SDS011;11299;43.202;27.920;2023-04-03T15:21:32;14.07;;;8.90;;
22260;SDS011;11299;43.202;27.920;2023-04-03T15:23:57;16.67;;;8.35;;
22260;SDS011;11299;43.202;27.920;2023-04-03T15:26:23;13.25;;;7.70;;
22260;SDS011;11299;43.202;27.920;2023-04-03T15:28:48;13.20;;;7.43;;
22260;SDS011;11299;43.202;27.920;2023-04-03T15:31:14;14.27;;;8.43;;
22260;SDS011;11299;43.202;27.920;2023-04-03T15:33:39;13.75;;;8.02;;
22260;SDS011;11299;43.202;27.920;2023-04-03T15:36:05;13.15;;;7.75;;
22260;SDS011;11299;43.202;27.920;2023-04-03T15:38:31;13.73;;;8.13;;
22260;SDS011;11299;43.202;27.920;2023-04-03T15:40:56;12.85;;;7.90;;
22260;SDS011;11299;43.202;27.920;2023-04-03T15:43:22;12.57;;;7.75;;
22260;SDS011;11299;43.202;27.920;2023-04-03T15:45:49;11.60;;;7.68;;
22260;SDS011;11299;43.202;27.920;2023-04-03T15:48:15;12.85;;;7.80;;
22260;SDS011;11299;43.202;27.920;2023-04-03T15:50:42;12.45;;;7.88;;
22260;SDS011;11299;43.202;27.920;2023-04-03T15:53:07;13.52;;;7.97;;
22260;SDS011;11299;43.202;27.920;2023-04-03T15:55:34;13.95;;;8.02;;
22260;SDS011;11299;43.202;27.920;2023-04-03T15:58:02;10.73;;;6.90;;
22260;SDS011;11299;43.202;27.920;2023-04-03T16:00:28;13.88;;;7.53;;
22260;SDS011;11299;43.202;27.920;2023-04-03T16:03:02;10.40;;;6.93;;
22260;SDS011;11299;43.202;27.920;2023-04-03T16:05:31;13.88;;;7.43;;
22260;SDS011;11299;43.202;27.920;2023-04-03T16:07:57;9.95;;;6.43;;
22260;SDS011;11299;43.202;27.920;2023-04-03T16:10:25;10.55;;;6.20;;
22260;SDS011;11299;43.202;27.920;2023-04-03T16:12:51;10.70;;;6.22;;
22260;SDS011;11299;43.202;27.920;2023-04-03T16:15:16;8.52;;;5.72;;
22260;SDS011;11299;43.202;27.920;2023-04-03T16:17:42;6.90;;;5.07;;
22260;SDS011;11299;43.202;27.920;2023-04-03T16:20:08;10.48;;;6.38;;
22260;SDS011;11299;43.202;27.920;2023-04-03T16:22:35;10.90;;;6.82;;
22260;SDS011;11299;43.202;27.920;2023-04-03T16:25:01;7.65;;;5.88;;